createdAt,value
2023-01-13T00:00:50.249Z,96928.44
2023-01-13T00:03:16.619Z,96917.06
2023-01-13T00:05:43.038Z,96913.72
2023-01-13T00:08:09.430Z,96912.41
2023-01-13T00:10:36.239Z,96917.22
2023-01-13T00:13:04.763Z,96913.41
2023-01-13T00:15:32.297Z,96906.44
2023-01-13T00:17:58.844Z,96905.88
2023-01-13T00:20:25.267Z,96908.59
2023-01-13T00:22:51.669Z,96906.44
2023-01-13T00:25:18.089Z,96902.94
2023-01-13T00:27:44.483Z,96894.88
2023-01-13T00:30:11.392Z,96898.84
2023-01-13T00:32:38.130Z,96899.84
2023-01-13T00:35:05.007Z,96904.88
2023-01-13T00:37:31.440Z,96892.00
2023-01-13T00:39:57.878Z,96893.56
2023-01-13T00:42:43.062Z,96885.84
2023-01-13T00:45:09.899Z,96882.41
2023-01-13T00:47:36.380Z,96884.97
2023-01-13T00:50:02.785Z,96882.69
2023-01-13T00:52:31.340Z,96876.88
2023-01-13T00:54:57.861Z,96874.78
2023-01-13T00:57:24.320Z,96871.69
2023-01-13T00:59:50.701Z,96887.44
2023-01-13T01:02:17.321Z,96875.56
2023-01-13T01:04:43.812Z,96879.09
2023-01-13T01:07:10.274Z,96877.97
2023-01-13T01:09:38.762Z,96865.28
2023-01-13T01:12:05.384Z,96866.88
2023-01-13T01:14:31.776Z,96869.56
2023-01-13T01:16:58.147Z,96870.53
2023-01-13T01:19:24.702Z,96867.59
2023-01-13T01:21:51.156Z,96869.72
2023-01-13T01:24:17.592Z,96867.03
2023-01-13T01:26:44.002Z,96866.88
2023-01-13T01:29:14.430Z,96869.72
2023-01-13T01:31:41.198Z,96871.13
2023-01-13T01:34:07.621Z,96879.94
2023-01-13T01:36:35.203Z,96881.69
2023-01-13T01:39:02.217Z,96876.84
2023-01-13T01:41:31.548Z,96872.03
2023-01-13T01:44:03.634Z,96871.72
2023-01-13T01:46:40.199Z,96872.03
2023-01-13T01:49:17.329Z,96870.97
2023-01-13T01:51:49.664Z,96865.25
2023-01-13T01:54:22.783Z,96856.41
2023-01-13T01:56:49.568Z,96860.81
2023-01-13T01:59:16.711Z,96861.53
2023-01-13T02:01:44.411Z,96862.56
2023-01-13T02:04:23.388Z,96859.63
2023-01-13T02:06:50.748Z,96866.34
2023-01-13T02:09:17.331Z,96862.56
2023-01-13T02:12:02.366Z,96858.66
2023-01-13T02:14:30.446Z,96854.75
2023-01-13T02:17:15.136Z,96849.59
2023-01-13T02:19:57.735Z,96846.66
2023-01-13T02:22:42.306Z,96853.88
2023-01-13T02:25:22.284Z,96850.59
2023-01-13T02:28:33.502Z,96848.66
2023-01-13T02:31:25.457Z,96840.75
2023-01-13T02:34:05.711Z,96835.53
2023-01-13T02:36:58.853Z,96834.09
2023-01-13T02:39:38.229Z,96830.63
2023-01-13T02:42:37.341Z,96835.44
2023-01-13T02:45:26.304Z,96820.09
2023-01-13T02:47:55.813Z,96820.59
2023-01-13T02:50:28.850Z,96819.22
2023-01-13T02:53:00.909Z,96818.84
2023-01-13T02:55:36.439Z,96816.94
2023-01-13T02:58:07.277Z,96809.34
2023-01-13T03:00:35.149Z,96823.88
2023-01-13T03:03:01.722Z,96826.09
2023-01-13T03:05:30.066Z,96818.00
2023-01-13T03:07:56.982Z,96814.47
2023-01-13T03:10:36.006Z,96805.59
2023-01-13T03:13:41.301Z,96811.06
2023-01-13T03:16:36.004Z,96797.41
2023-01-13T03:19:21.623Z,96800.03
2023-01-13T03:22:17.288Z,96800.69
2023-01-13T03:25:05.434Z,96804.84
2023-01-13T03:27:42.541Z,96801.66
2023-01-13T03:30:12.491Z,96783.53
2023-01-13T03:32:42.537Z,96779.69
2023-01-13T03:35:16.630Z,96780.94
2023-01-13T03:37:49.661Z,96771.53
2023-01-13T03:40:20.933Z,96779.31
2023-01-13T03:43:18.433Z,96774.22
2023-01-13T03:45:52.073Z,96780.94
2023-01-13T03:48:22.776Z,96767.81
2023-01-13T03:50:52.382Z,96767.63
2023-01-13T03:53:23.567Z,96762.47
2023-01-13T03:55:59.542Z,96758.91
2023-01-13T03:58:32.755Z,96752.91
2023-01-13T04:01:04.888Z,96754.81
2023-01-13T04:03:43.689Z,96757.50
2023-01-13T04:06:14.794Z,96752.50
2023-01-13T04:08:49.131Z,96759.25
2023-01-13T04:11:25.817Z,96761.41
2023-01-13T04:13:53.727Z,96749.88
2023-01-13T04:16:20.602Z,96758.53
2023-01-13T04:18:49.916Z,96756.91
2023-01-13T04:21:16.392Z,96753.63
2023-01-13T04:23:42.801Z,96757.44
2023-01-13T04:26:09.226Z,96750.69
2023-01-13T04:28:35.679Z,96745.88
2023-01-13T04:31:02.120Z,96755.00
2023-01-13T04:33:28.652Z,96749.13
2023-01-13T04:35:55.140Z,96743.19
2023-01-13T04:38:21.814Z,96747.00
2023-01-13T04:40:48.385Z,96735.41
2023-01-13T04:43:15.818Z,96735.97
2023-01-13T04:45:43.541Z,96726.81
2023-01-13T04:48:10.472Z,96730.88
2023-01-13T04:50:37.158Z,96728.69
2023-01-13T04:53:03.720Z,96721.41
2023-01-13T04:55:31.696Z,96730.31
2023-01-13T04:58:05.903Z,96729.06
2023-01-13T05:00:32.935Z,96734.47
2023-01-13T05:02:59.574Z,96733.63
2023-01-13T05:05:27.626Z,96733.69
2023-01-13T05:07:54.299Z,96736.63
2023-01-13T05:10:23.915Z,96731.19
2023-01-13T05:13:10.441Z,96728.81
2023-01-13T05:15:57.926Z,96726.97
2023-01-13T05:18:24.543Z,96735.06
2023-01-13T05:20:50.968Z,96728.06
2023-01-13T05:23:35.811Z,96728.06
2023-01-13T05:26:02.441Z,96725.34
2023-01-13T05:28:33.748Z,96727.56
2023-01-13T05:31:00.458Z,96715.38
2023-01-13T05:33:26.928Z,96720.25
2023-01-13T05:35:53.444Z,96723.78
2023-01-13T05:38:19.926Z,96711.06
2023-01-13T05:41:04.684Z,96707.91
2023-01-13T05:43:32.859Z,96712.16
2023-01-13T05:46:05.974Z,96714.13
2023-01-13T05:48:38.368Z,96724.47
2023-01-13T05:51:07.008Z,96731.53
2023-01-13T05:53:33.804Z,96725.53
2023-01-13T05:56:03.377Z,96726.84
2023-01-13T05:58:29.821Z,96728.94
2023-01-13T06:01:01.745Z,96736.44
2023-01-13T06:03:28.250Z,96734.03
2023-01-13T06:05:58.824Z,96730.31
2023-01-13T06:08:25.813Z,96728.09
2023-01-13T06:10:52.459Z,96735.69
2023-01-13T06:13:19.121Z,96725.97
2023-01-13T06:15:45.712Z,96733.50
2023-01-13T06:18:12.282Z,96723.22
2023-01-13T06:20:38.695Z,96732.66
2023-01-13T06:23:09.400Z,96723.72
2023-01-13T06:26:08.187Z,96731.13
2023-01-13T06:28:34.911Z,96730.25
2023-01-13T06:31:05.831Z,96716.47
2023-01-13T06:33:45.781Z,96726.53
2023-01-13T06:36:17.006Z,96716.53
2023-01-13T06:38:47.563Z,96716.75
2023-01-13T06:41:14.736Z,96717.84
2023-01-13T06:43:41.408Z,96715.63
2023-01-13T06:46:08.115Z,96712.53
2023-01-13T06:48:35.356Z,96721.38
2023-01-13T06:51:04.096Z,96709.81
2023-01-13T06:53:31.001Z,96713.50
2023-01-13T06:55:57.416Z,96714.63
2023-01-13T06:58:23.959Z,96715.50
2023-01-13T07:00:51.370Z,96706.59
2023-01-13T07:03:18.951Z,96713.28
2023-01-13T07:05:52.889Z,96710.88
2023-01-13T07:08:19.454Z,96712.38
2023-01-13T07:10:46.018Z,96702.84
2023-01-13T07:13:31.046Z,96715.59
2023-01-13T07:16:00.724Z,96708.53
2023-01-13T07:18:31.292Z,96711.75
2023-01-13T07:21:00.277Z,96717.47
2023-01-13T07:23:28.346Z,96721.28
2023-01-13T07:25:59.300Z,96737.50
2023-01-13T07:28:27.439Z,96721.91
2023-01-13T07:30:54.241Z,96718.97
2023-01-13T07:33:21.337Z,96710.88
2023-01-13T07:35:59.290Z,96710.53
2023-01-13T07:38:26.547Z,96714.38
2023-01-13T07:40:53.215Z,96707.59
2023-01-13T07:43:32.196Z,96708.97
2023-01-13T07:46:00.246Z,96717.13
2023-01-13T07:48:27.857Z,96717.44
2023-01-13T07:50:55.259Z,96723.63
2023-01-13T07:53:24.855Z,96722.78
2023-01-13T07:55:55.803Z,96729.31
2023-01-13T07:58:22.414Z,96736.06
2023-01-13T08:00:49.048Z,96742.50
2023-01-13T08:03:15.609Z,96742.78
2023-01-13T08:05:42.155Z,96753.50
2023-01-13T08:08:08.622Z,96766.75
2023-01-13T08:10:35.596Z,96767.94
2023-01-13T08:13:21.026Z,96777.78
2023-01-13T08:15:53.123Z,96800.16
2023-01-13T08:18:22.261Z,96786.50
2023-01-13T08:20:49.889Z,96800.50
2023-01-13T08:23:17.058Z,96792.59
2023-01-13T08:25:43.775Z,96799.09
2023-01-13T08:28:10.658Z,96785.88
2023-01-13T08:30:37.267Z,96802.34
2023-01-13T08:33:07.723Z,96811.13
2023-01-13T08:35:39.454Z,96816.44
2023-01-13T08:38:06.169Z,96815.25
2023-01-13T08:40:33.146Z,96834.44
2023-01-13T08:42:59.922Z,96852.22
2023-01-13T08:45:26.474Z,96900.84
2023-01-13T08:47:52.794Z,96926.28
2023-01-13T08:50:19.692Z,96935.59
2023-01-13T08:52:46.128Z,96903.00
2023-01-13T08:55:12.555Z,96924.91
2023-01-13T08:57:38.894Z,96912.19
2023-01-13T09:00:06.997Z,96904.00
2023-01-13T09:02:33.525Z,96908.31
2023-01-13T09:05:04.603Z,96919.69
2023-01-13T09:07:31.245Z,96906.91
2023-01-13T09:09:57.806Z,96904.47
2023-01-13T09:12:42.937Z,96912.53
2023-01-13T09:15:09.987Z,96916.25
2023-01-13T09:17:36.335Z,96908.78
2023-01-13T09:20:02.686Z,96917.97
2023-01-13T09:22:29.231Z,96921.03
2023-01-13T09:24:55.773Z,96914.03
2023-01-13T09:27:23.506Z,96912.50
2023-01-13T09:29:49.988Z,96915.28
2023-01-13T09:32:16.340Z,96918.81
2023-01-13T09:35:00.986Z,96924.75
2023-01-13T09:37:28.337Z,96926.69
2023-01-13T09:39:54.789Z,96922.34
2023-01-13T09:42:47.461Z,96925.59
2023-01-13T09:45:22.032Z,96930.97
2023-01-13T09:48:06.743Z,96939.88
2023-01-13T09:50:51.863Z,96931.81
2023-01-13T09:53:23.405Z,96945.97
2023-01-13T09:55:49.906Z,96937.88
2023-01-13T09:58:18.051Z,96954.63
2023-01-13T10:01:03.041Z,96947.72
2023-01-13T10:03:30.809Z,96957.81
2023-01-13T10:06:00.141Z,96942.59
2023-01-13T10:08:32.629Z,96946.84
2023-01-13T10:11:00.295Z,96943.63
2023-01-13T10:13:31.282Z,96949.03
2023-01-13T10:16:16.131Z,96949.06
2023-01-13T10:18:51.594Z,96956.44
2023-01-13T10:21:27.066Z,96965.78
2023-01-13T10:24:07.145Z,96963.06
2023-01-13T10:27:03.041Z,96963.78
2023-01-13T10:29:31.014Z,96971.44
2023-01-13T10:31:59.520Z,96973.59
2023-01-13T10:34:27.197Z,96980.78
2023-01-13T10:37:02.970Z,96988.97
2023-01-13T10:39:38.976Z,96985.22
2023-01-13T10:42:06.264Z,96992.72
2023-01-13T10:44:45.857Z,96980.28
2023-01-13T10:47:19.549Z,96961.34
2023-01-13T10:49:58.277Z,96958.75
2023-01-13T10:52:33.552Z,96961.69
2023-01-13T10:55:01.033Z,96967.19
2023-01-13T10:57:28.561Z,96959.72
2023-01-13T10:59:56.212Z,96966.13
2023-01-13T11:02:34.120Z,96951.31
2023-01-13T11:05:18.446Z,96951.69
2023-01-13T11:07:52.386Z,96954.09
2023-01-13T11:10:18.837Z,96942.06
2023-01-13T11:13:10.692Z,96949.91
2023-01-13T11:15:43.659Z,96974.41
2023-01-13T11:18:15.141Z,96963.44
2023-01-13T11:20:46.273Z,96968.81
2023-01-13T11:23:46.208Z,96966.47
2023-01-13T11:26:21.621Z,96975.88
2023-01-13T11:28:55.874Z,96974.34
2023-01-13T11:31:50.089Z,96978.69
2023-01-13T11:34:39.288Z,96979.16
2023-01-13T11:37:17.840Z,96981.84
2023-01-13T11:40:06.068Z,96969.47
2023-01-13T11:42:36.624Z,96976.50
2023-01-13T11:45:18.375Z,96979.41
2023-01-13T11:47:51.058Z,96999.38
2023-01-13T11:50:50.934Z,96975.63
2023-01-13T11:53:30.783Z,96973.84
2023-01-13T11:56:29.543Z,96966.34
2023-01-13T11:59:05.106Z,96961.31
2023-01-13T12:02:13.727Z,96950.03
2023-01-13T12:04:59.126Z,96973.00
2023-01-13T12:07:53.379Z,96963.38
2023-01-13T12:10:44.448Z,96972.88
2023-01-13T12:13:48.180Z,96979.03
2023-01-13T12:16:30.154Z,96975.66
2023-01-13T12:19:07.758Z,96991.66
2023-01-13T12:21:42.481Z,96979.03
2023-01-13T12:24:31.143Z,96980.38
2023-01-13T12:27:12.852Z,97003.69
2023-01-13T12:29:39.893Z,97005.63
2023-01-13T12:32:15.799Z,97003.41
2023-01-13T12:35:16.892Z,96991.59
2023-01-13T12:38:28.652Z,97000.03
2023-01-13T12:41:32.450Z,97006.00
2023-01-13T12:44:17.884Z,97003.66
2023-01-13T12:46:58.879Z,97006.84
2023-01-13T12:49:28.152Z,97005.31
2023-01-13T12:51:54.523Z,97014.41
2023-01-13T12:54:32.881Z,97022.16
2023-01-13T12:57:00.224Z,97016.88
2023-01-13T12:59:26.641Z,97015.56
2023-01-13T13:02:11.892Z,97011.16
2023-01-13T13:04:51.730Z,97017.19
2023-01-13T13:07:30.249Z,97014.78
2023-01-13T13:10:05.200Z,97017.34
2023-01-13T13:12:50.198Z,97007.03
2023-01-13T13:15:22.860Z,97005.16
2023-01-13T13:18:08.607Z,97013.47
2023-01-13T13:20:55.604Z,97002.09
2023-01-13T13:23:37.765Z,97012.50
2023-01-13T13:26:17.384Z,97017.84
2023-01-13T13:28:57.338Z,97018.59
2023-01-13T13:31:35.989Z,97015.19
2023-01-13T13:34:13.200Z,97024.09
2023-01-13T13:36:58.573Z,97031.97
2023-01-13T13:39:47.401Z,97037.38
2023-01-13T13:42:55.879Z,97036.56
2023-01-13T13:45:43.792Z,97055.63
2023-01-13T13:48:28.059Z,97054.22
2023-01-13T13:51:02.218Z,97072.13
2023-01-13T13:53:34.187Z,97076.09
2023-01-13T13:56:03.948Z,97091.84
2023-01-13T13:58:35.468Z,97120.69
2023-01-13T14:01:04.337Z,97125.94
2023-01-13T14:03:34.385Z,97121.19
2023-01-13T14:06:03.411Z,97137.28
2023-01-13T14:08:34.258Z,97131.78
2023-01-13T14:11:00.827Z,97128.88
2023-01-13T14:13:29.765Z,97125.50
2023-01-13T14:16:04.664Z,97114.56
2023-01-13T14:18:35.125Z,97117.38
2023-01-13T14:21:33.787Z,97122.00
2023-01-13T14:24:05.469Z,97127.56
2023-01-13T14:26:32.232Z,97130.44
2023-01-13T14:29:01.884Z,97130.50
2023-01-13T14:31:29.548Z,97121.94
2023-01-13T14:33:58.236Z,97120.34
2023-01-13T14:36:33.510Z,97121.78
2023-01-13T14:39:03.012Z,97118.63
2023-01-13T14:41:36.949Z,97124.28
2023-01-13T14:44:21.552Z,97128.56
2023-01-13T14:46:48.802Z,97138.00
2023-01-13T14:49:24.240Z,97137.78
2023-01-13T14:51:51.668Z,97150.94
2023-01-13T14:54:42.902Z,97158.59
2023-01-13T14:57:28.878Z,97159.13
2023-01-13T15:00:01.676Z,97156.16
2023-01-13T15:02:31.102Z,97170.16
2023-01-13T15:05:24.089Z,97172.47
2023-01-13T15:08:18.451Z,97171.13
2023-01-13T15:10:50.954Z,97192.09
2023-01-13T15:13:38.521Z,97198.31
2023-01-13T15:16:26.429Z,97201.84
2023-01-13T15:18:54.769Z,97186.31
2023-01-13T15:21:21.614Z,97198.31
2023-01-13T15:23:48.079Z,97205.94
2023-01-13T15:26:26.613Z,97196.41
2023-01-13T15:28:55.732Z,97185.09
2023-01-13T15:31:23.425Z,97184.22
2023-01-13T15:33:50.226Z,97198.69
2023-01-13T15:36:21.591Z,97193.47
2023-01-13T15:38:48.213Z,97199.16
2023-01-13T15:41:14.650Z,97201.09
2023-01-13T15:43:59.749Z,97207.75
2023-01-13T15:46:38.542Z,97209.63
2023-01-13T15:49:12.749Z,97225.44
2023-01-13T15:51:40.197Z,97224.19
2023-01-13T15:54:09.270Z,97240.44
2023-01-13T15:56:37.990Z,97233.44
2023-01-13T15:59:17.397Z,97225.06
2023-01-13T16:01:45.089Z,97231.84
2023-01-13T16:04:11.612Z,97244.31
2023-01-13T16:06:38.182Z,97260.47
2023-01-13T16:09:05.401Z,97252.91
2023-01-13T16:11:32.033Z,97241.66
2023-01-13T16:13:58.570Z,97253.00
2023-01-13T16:16:28.033Z,97255.13
2023-01-13T16:18:55.054Z,97256.59
2023-01-13T16:21:22.776Z,97254.28
2023-01-13T16:23:50.824Z,97264.06
2023-01-13T16:26:29.815Z,97255.00
2023-01-13T16:28:57.937Z,97270.44
2023-01-13T16:31:32.011Z,97270.06
2023-01-13T16:34:00.498Z,97274.22
2023-01-13T16:36:28.638Z,97275.44
2023-01-13T16:38:56.697Z,97275.72
2023-01-13T16:41:24.884Z,97280.88
2023-01-13T16:43:52.195Z,97278.56
2023-01-13T16:46:18.660Z,97279.28
2023-01-13T16:48:45.832Z,97283.38
2023-01-13T16:51:12.337Z,97285.22
2023-01-13T16:53:38.946Z,97292.06
2023-01-13T16:56:16.801Z,97293.06
2023-01-13T16:58:43.360Z,97293.16
2023-01-13T17:01:18.929Z,97307.31
2023-01-13T17:03:48.981Z,97306.75
2023-01-13T17:06:17.361Z,97305.66
2023-01-13T17:08:43.806Z,97312.75
2023-01-13T17:11:10.411Z,97308.53
2023-01-13T17:13:36.989Z,97316.09
2023-01-13T17:16:03.525Z,97325.03
2023-01-13T17:18:30.148Z,97326.56
2023-01-13T17:20:58.661Z,97315.03
2023-01-13T17:23:25.190Z,97317.88
2023-01-13T17:25:54.593Z,97319.66
2023-01-13T17:28:21.255Z,97331.03
2023-01-13T17:34:40.396Z,97341.88
2023-01-13T17:37:06.832Z,97341.06
2023-01-13T17:39:33.376Z,97346.22
2023-01-13T17:41:59.963Z,97356.22
2023-01-13T17:44:26.667Z,97347.94
2023-01-13T17:46:53.469Z,97362.19
2023-01-13T17:53:06.768Z,97377.38
2023-01-13T17:55:33.242Z,97384.84
2023-01-13T17:57:59.738Z,97388.69
2023-01-13T18:00:26.260Z,97389.91
2023-01-13T18:02:54.324Z,97392.53
2023-01-13T18:05:20.864Z,97390.44
2023-01-13T18:07:47.347Z,97383.38
2023-01-13T18:10:14.212Z,97381.59
2023-01-13T18:12:40.727Z,97384.53
2023-01-13T18:15:07.612Z,97387.22
2023-01-13T18:17:34.114Z,97390.16
2023-01-13T18:20:19.358Z,97390.81
2023-01-13T18:23:04.190Z,97404.66
2023-01-13T18:25:49.108Z,97407.25
2023-01-13T18:28:15.530Z,97413.69
2023-01-13T18:30:41.987Z,97412.78
2023-01-13T18:33:08.397Z,97427.13
2023-01-13T18:35:37.501Z,97421.09
2023-01-13T18:38:03.966Z,97422.97
2023-01-13T18:40:30.449Z,97420.94
2023-01-13T18:42:58.901Z,97427.81
2023-01-13T18:45:31.333Z,97422.06
2023-01-13T18:48:01.357Z,97427.22
2023-01-13T18:50:28.493Z,97431.50
2023-01-13T18:52:55.569Z,97443.78
2023-01-13T18:55:22.699Z,97436.41
2023-01-13T18:57:50.341Z,97439.97
2023-01-13T19:00:19.359Z,97431.16
2023-01-13T19:02:47.325Z,97433.16
2023-01-13T19:05:14.315Z,97442.44
2023-01-13T19:07:40.856Z,97463.28
2023-01-13T19:10:09.657Z,97458.81
2023-01-13T19:12:36.153Z,97455.13
2023-01-13T19:15:02.823Z,97451.19
2023-01-13T19:17:34.418Z,97443.16
2023-01-13T19:20:01.597Z,97440.91
2023-01-13T19:22:30.949Z,97453.28
2023-01-13T19:24:58.456Z,97463.31
2023-01-13T19:27:27.430Z,97469.75
2023-01-13T19:29:57.432Z,97468.91
2023-01-13T19:32:24.540Z,97472.47
2023-01-13T19:34:51.483Z,97477.97
2023-01-13T19:37:19.307Z,97486.06
2023-01-13T19:39:45.832Z,97498.88
2023-01-13T19:42:31.973Z,97498.84
2023-01-13T19:45:16.982Z,97509.13
2023-01-13T19:47:45.361Z,97516.59
2023-01-13T19:50:13.398Z,97520.91
2023-01-13T19:52:39.930Z,97539.28
2023-01-13T19:55:06.900Z,97534.94
2023-01-13T19:57:33.396Z,97542.09
2023-01-13T19:59:59.880Z,97544.34
2023-01-13T20:02:31.364Z,97538.13
2023-01-13T20:05:00.491Z,97539.78
2023-01-13T20:07:29.467Z,97539.97
2023-01-13T20:09:56.450Z,97551.31
2023-01-13T20:12:24.378Z,97554.22
2023-01-13T20:14:51.244Z,97562.47
2023-01-13T20:17:19.839Z,97560.81
2023-01-13T20:19:46.793Z,97559.59
2023-01-13T20:22:13.980Z,97565.56
2023-01-13T20:24:40.678Z,97561.88
2023-01-13T20:27:07.361Z,97559.59
2023-01-13T20:29:34.777Z,97562.72
2023-01-13T20:32:01.479Z,97551.56
2023-01-13T20:34:28.066Z,97551.56
2023-01-13T20:36:54.539Z,97553.56
2023-01-13T20:39:24.870Z,97556.72
2023-01-13T20:42:10.037Z,97560.34
2023-01-13T20:44:36.774Z,97561.22
2023-01-13T20:47:03.630Z,97556.22
2023-01-13T20:49:30.884Z,97579.63
2023-01-13T20:51:58.774Z,97567.00
2023-01-13T20:54:25.702Z,97579.03
2023-01-13T20:56:52.246Z,97581.94
2023-01-13T20:59:18.792Z,97588.16
2023-01-13T21:01:45.525Z,97596.38
2023-01-13T21:04:12.216Z,97579.47
2023-01-13T21:06:38.829Z,97580.78
2023-01-13T21:09:05.251Z,97584.91
2023-01-13T21:11:50.098Z,97581.00
2023-01-13T21:14:41.526Z,97574.41
2023-01-13T21:17:29.320Z,97573.38
2023-01-13T21:19:56.381Z,97577.28
2023-01-13T21:22:22.933Z,97577.72
2023-01-13T21:24:49.416Z,97564.31
2023-01-13T21:27:15.957Z,97577.50
2023-01-13T21:29:44.488Z,97578.56
2023-01-13T21:32:11.294Z,97584.34
2023-01-13T21:34:38.949Z,97588.44
2023-01-13T21:37:05.601Z,97595.88
2023-01-13T21:39:32.093Z,97601.25
2023-01-13T21:42:16.930Z,97595.47
2023-01-13T21:45:01.915Z,97594.84
2023-01-13T21:47:46.766Z,97606.59
2023-01-13T21:50:15.781Z,97614.41
2023-01-13T21:52:45.113Z,97610.28
2023-01-13T21:55:28.779Z,97621.84
2023-01-13T21:58:01.082Z,97628.22
2023-01-13T22:00:30.263Z,97629.44
2023-01-13T22:02:58.537Z,97638.88
2023-01-13T22:05:25.950Z,97648.75
2023-01-13T22:07:53.284Z,97659.06
2023-01-13T22:10:22.571Z,97660.25
2023-01-13T22:12:55.494Z,97664.97
2023-01-13T22:15:25.794Z,97671.16
2023-01-13T22:17:53.808Z,97667.88
2023-01-13T22:20:22.194Z,97653.25
2023-01-13T22:22:49.443Z,97651.00
2023-01-13T22:25:17.227Z,97653.22
2023-01-13T22:27:44.898Z,97656.88
2023-01-13T22:30:17.626Z,97651.72
2023-01-13T22:32:45.595Z,97639.19
2023-01-13T22:35:15.080Z,97643.69
2023-01-13T22:37:43.300Z,97636.44
2023-01-13T22:40:11.723Z,97636.41
2023-01-13T22:42:39.587Z,97630.44
2023-01-13T22:45:09.588Z,97629.63
2023-01-13T22:47:36.289Z,97628.84
2023-01-13T22:50:03.352Z,97629.53
2023-01-13T22:52:30.151Z,97627.47
2023-01-13T22:54:56.635Z,97630.59
2023-01-13T22:57:24.006Z,97629.38
2023-01-13T22:59:50.571Z,97626.72
2023-01-13T23:02:17.052Z,97625.50
2023-01-13T23:04:43.752Z,97626.34
2023-01-13T23:07:10.263Z,97624.88
2023-01-13T23:09:36.813Z,97636.59
2023-01-13T23:12:03.388Z,97637.44
2023-01-13T23:14:29.822Z,97632.41
2023-01-13T23:16:56.298Z,97623.94
2023-01-13T23:19:23.060Z,97621.28
2023-01-13T23:21:49.626Z,97628.66
2023-01-13T23:24:16.197Z,97625.97
2023-01-13T23:26:42.707Z,97629.97
2023-01-13T23:29:11.342Z,97630.78
2023-01-13T23:31:37.969Z,97635.47
2023-01-13T23:34:04.638Z,97646.91
2023-01-13T23:36:31.221Z,97646.28
2023-01-13T23:38:59.244Z,97640.06
2023-01-13T23:41:27.168Z,97642.06
2023-01-13T23:43:59.053Z,97634.84
2023-01-13T23:46:26.841Z,97638.78
2023-01-13T23:48:55.255Z,97642.84
2023-01-13T23:51:22.556Z,97637.50
2023-01-13T23:53:50.511Z,97635.16
2023-01-13T23:56:22.380Z,97642.84
2023-01-13T23:58:49.885Z,97633.03
